Time;durP1;ratioP1;P1;durP2;ratioP2;P2;SDS_P1;SDS_P2;PMS_P1;PMS_P2;Temp;Humidity;BMP_temperature;BMP_pressure;BME280_temperature;BME280_humidity;BME280_pressure;Samples;Min_cycle;Max_cycle;Signal;HPM_P1;HPM_P2
2023/08/05 00:01:54;;;;;;;7.70;5.03;;;;;;;;;;5001285;28;20517;-87
2023/08/05 00:04:20;;;;;;;5.75;3.78;;;;;;;;;;4985243;28;20045;-87
2023/08/05 00:06:46;;;;;;;6.32;4.20;;;;;;;;;;5017479;28;20045;-89
2023/08/05 00:09:12;;;;;;;6.85;4.57;;;;;;;;;;5001694;28;20084;-87
2023/08/05 00:11:38;;;;;;;7.70;4.50;;;;;;;;;;5001641;28;20095;-86
2023/08/05 00:14:04;;;;;;;5.93;4.63;;;;;;;;;;5018540;28;20199;-90
2023/08/05 00:16:30;;;;;;;8.85;4.43;;;;;;;;;;5017903;28;20053;-86
2023/08/05 00:18:56;;;;;;;9.77;4.50;;;;;;;;;;5017801;28;20045;-87
2023/08/05 00:21:22;;;;;;;9.30;4.47;;;;;;;;;;5001539;28;20135;-86
2023/08/05 00:23:48;;;;;;;8.43;4.47;;;;;;;;;;5017345;28;20049;-88
2023/08/05 00:26:14;;;;;;;6.38;4.85;;;;;;;;;;5017967;28;20059;-86
2023/08/05 00:28:40;;;;;;;8.70;4.63;;;;;;;;;;5017979;28;20378;-85
2023/08/05 00:31:09;;;;;;;6.45;4.50;;;;;;;;;;5017441;28;20485;-86
2023/08/05 00:33:35;;;;;;;11.32;5.55;;;;;;;;;;5000996;28;20077;-86
2023/08/05 00:36:01;;;;;;;8.60;5.18;;;;;;;;;;5018011;28;20045;-86
2023/08/05 00:38:27;;;;;;;8.15;5.13;;;;;;;;;;5001509;28;20058;-87
2023/08/05 00:40:53;;;;;;;13.98;6.80;;;;;;;;;;5019205;28;20657;-87
2023/08/05 00:43:20;;;;;;;12.48;6.03;;;;;;;;;;4986807;28;20077;-87
2023/08/05 00:45:46;;;;;;;7.53;6.03;;;;;;;;;;5018192;28;20041;-89
2023/08/05 00:48:12;;;;;;;16.25;7.47;;;;;;;;;;5003001;28;20049;-86
2023/08/05 00:50:39;;;;;;;10.77;6.47;;;;;;;;;;5017737;28;20128;-87
2023/08/05 00:53:05;;;;;;;7.30;6.05;;;;;;;;;;5018698;28;20494;-89
2023/08/05 00:55:31;;;;;;;8.95;5.60;;;;;;;;;;5001076;28;20042;-87
2023/08/05 00:57:57;;;;;;;11.30;6.25;;;;;;;;;;5001463;28;20053;-86
2023/08/05 01:00:24;;;;;;;12.38;5.38;;;;;;;;;;5017069;28;20099;-87
2023/08/05 01:02:50;;;;;;;15.73;6.15;;;;;;;;;;5017766;28;20049;-87
2023/08/05 01:05:16;;;;;;;7.75;5.43;;;;;;;;;;5002790;28;20048;-87
2023/08/05 01:07:43;;;;;;;8.35;5.80;;;;;;;;;;5017599;28;20037;-86
2023/08/05 01:10:09;;;;;;;12.77;5.32;;;;;;;;;;5017601;28;20042;-87
2023/08/05 01:12:35;;;;;;;10.15;5.63;;;;;;;;;;5001747;28;20053;-86
2023/08/05 01:15:01;;;;;;;7.07;4.47;;;;;;;;;;5017999;28;20042;-87
2023/08/05 01:17:27;;;;;;;10.85;5.00;;;;;;;;;;5001115;28;20041;-88
2023/08/05 01:19:54;;;;;;;7.15;4.22;;;;;;;;;;5016469;28;20521;-86
2023/08/05 01:22:37;;;;;;;13.07;5.95;;;14.90;1.00;;;;;;5016385;28;20046;-87
2023/08/05 01:25:27;;;;;;;7.22;5.38;;;14.70;1.00;;;;;;5016659;28;20046;-87
2023/08/05 01:28:00;;;;;;;7.65;4.78;;;;;;;;;;5016029;28;20056;-87
2023/08/05 01:30:27;;;;;;;11.82;6.75;;;14.60;1.00;;;;;;5016369;28;20049;-87
2023/08/05 01:32:53;;;;;;;8.80;4.90;;;14.40;1.00;;;;;;5032455;28;20060;-87
2023/08/05 01:35:23;;;;;;;13.77;5.18;;;;;;;;;;5015665;28;20498;-85
2023/08/05 01:37:49;;;;;;;8.20;5.85;;;;;;;;;;5015829;28;20092;-84
2023/08/05 01:40:15;;;;;;;8.27;5.15;;;;;;;;;;5015575;28;20129;-84
2023/08/05 01:42:41;;;;;;;10.80;6.28;;;;;;;;;;5015478;28;20505;-85
2023/08/05 01:45:08;;;;;;;9.95;5.43;;;;;;;;;;4998797;28;20053;-85
2023/08/05 01:47:34;;;;;;;9.55;5.80;;;;;;;;;;5015649;28;20399;-85
2023/08/05 01:50:00;;;;;;;8.88;5.95;;;;;;;;;;4983460;28;20045;-85
2023/08/05 01:52:26;;;;;;;7.38;5.05;;;;;;;;;;4998911;28;20126;-85
2023/08/05 01:54:52;;;;;;;14.38;5.50;;;;;;;;;;4983066;28;20045;-84
2023/08/05 01:57:18;;;;;;;9.82;5.45;;;;;;;;;;4998946;28;20049;-85
2023/08/05 01:59:44;;;;;;;11.43;5.53;;;;;;;;;;5015462;28;20052;-84
2023/08/05 02:02:11;;;;;;;10.32;5.10;;;;;;;;;;4998293;28;20041;-84
2023/08/05 02:04:37;;;;;;;9.27;5.82;;;;;;;;;;4998600;28;20045;-85
2023/08/05 02:07:03;;;;;;;11.30;5.55;;;;;;;;;;5015163;28;20049;-85
2023/08/05 02:09:28;;;;;;;7.15;5.85;;;14.20;15.40;;;;;;5015172;28;20045;-86
2023/08/05 02:11:54;;;;;;;13.77;6.10;;;;;;;;;;4998592;28;20056;-85
2023/08/05 02:14:21;;;;;;;9.32;6.13;;;;;;;;;;4999050;28;20086;-85
2023/08/05 02:16:47;;;;;;;11.13;5.88;;;;;;;;;;5014760;28;20033;-85
2023/08/05 02:19:13;;;;;;;7.22;5.68;;;;;;;;;;4998462;28;20049;-85
2023/08/05 02:21:39;;;;;;;9.02;5.85;;;;;;;;;;4998706;28;20046;-85
2023/08/05 02:24:09;;;;;;;8.88;5.60;;;;;;;;;;5014980;28;20560;-85
2023/08/05 02:26:35;;;;;;;9.68;5.43;;;;;;;;;;5014908;28;20129;-85
2023/08/05 02:29:01;;;;;;;6.80;4.85;;;;;;;;;;5015015;28;20044;-85
2023/08/05 02:31:27;;;;;;;13.20;6.38;;;;;;;;;;4998101;28;20052;-85
2023/08/05 02:33:53;;;;;;;9.38;4.97;;;;;;;;;;5014596;28;20045;-85
2023/08/05 02:36:19;;;;;;;8.50;5.43;;;;;;;;;;5014576;28;20426;-85
2023/08/05 02:38:45;;;;;;;6.85;4.85;;;;;;;;;;5014201;28;20057;-85
2023/08/05 02:41:12;;;;;;;14.70;5.55;;;;;;;;;;4998735;28;20497;-85
2023/08/05 02:43:38;;;;;;;14.27;5.43;;;;;;;;;;5014872;28;20060;-85
2023/08/05 02:46:04;;;;;;;6.95;4.55;;;;;;;;;;4998505;28;20139;-85
2023/08/05 02:48:30;;;;;;;14.30;4.57;;;;;;;;;;4997957;28;20105;-85
2023/08/05 02:50:56;;;;;;;8.25;5.25;;;;;;;;;;5014624;28;20056;-85
2023/08/05 02:53:22;;;;;;;9.85;4.80;;;;;;;;;;4998185;28;20041;-86
2023/08/05 02:55:48;;;;;;;13.02;5.25;;;;;;;;;;4998278;28;20490;-85
2023/08/05 02:58:15;;;;;;;9.20;5.68;;;13.50;20.40;;;;;;4997750;28;20638;-85
2023/08/05 03:00:41;;;;;;;9.18;5.50;;;;;;;;;;5014430;28;20041;-85
2023/08/05 03:03:11;;;;;;;6.70;5.05;;;;;;;;;;4997635;28;20045;-85
2023/08/05 03:05:37;;;;;;;10.40;5.60;;;;;;;;;;4998041;28;20048;-85
2023/08/05 03:08:03;;;;;;;8.38;5.18;;;;;;;;;;5014449;28;20071;-85
2023/08/05 03:10:29;;;;;;;9.70;5.38;;;;;;;;;;4997743;28;20133;-85
2023/08/05 03:12:55;;;;;;;7.47;4.93;;;;;;;;;;4999121;28;20042;-85
2023/08/05 03:15:21;;;;;;;7.93;4.55;;;;;;;;;;5002140;28;20092;-84
2023/08/05 03:17:47;;;;;;;7.32;5.47;;;;;;;;;;5018217;28;20046;-85
2023/08/05 03:20:39;;;;;;;9.18;5.07;;;13.80;21.70;;;;;;4986072;28;20045;-85
2023/08/05 03:23:05;;;;;;;15.00;5.28;;;;;;;;;;5015134;28;20477;-85
2023/08/05 03:25:31;;;;;;;7.05;5.10;;;;;;;;;;5001868;28;20060;-85
2023/08/05 03:27:57;;;;;;;9.18;4.90;;;;;;;;;;5018026;28;20100;-85
2023/08/05 03:30:24;;;;;;;8.35;5.10;;;;;;;;;;5018146;28;20067;-85
2023/08/05 03:32:50;;;;;;;13.18;4.18;;;;;;;;;;5017781;28;20049;-86
2023/08/05 03:35:16;;;;;;;9.90;4.22;;;;;;;;;;5001918;28;20042;-85
2023/08/05 03:37:42;;;;;;;15.88;5.40;;;;;;;;;;5001612;28;20882;-85
2023/08/05 03:40:08;;;;;;;7.38;4.35;;;;;;;;;;5017999;28;20478;-85
2023/08/05 03:42:34;;;;;;;9.10;5.63;;;;;;;;;;5001459;28;20045;-85
2023/08/05 03:45:00;;;;;;;9.18;4.53;;;;;;;;;;4985409;28;20048;-84
2023/08/05 03:47:26;;;;;;;5.65;4.72;;;;;;;;;;5017474;28;20041;-85
2023/08/05 03:49:52;;;;;;;7.78;5.18;;;;;;;;;;5001340;28;20113;-85
2023/08/05 03:52:19;;;;;;;11.10;5.10;;;;;;;;;;5017590;28;20132;-85
2023/08/05 03:54:45;;;;;;;7.20;4.60;;;;;;;;;;4984884;28;20046;-85
2023/08/05 03:57:11;;;;;;;8.88;5.45;;;;;;;;;;5017263;28;20406;-85
2023/08/05 03:59:37;;;;;;;9.45;5.45;;;;;;;;;;5017356;28;20506;-85
2023/08/05 04:02:03;;;;;;;10.32;5.82;;;;;;;;;;5000780;28;20056;-85
2023/08/05 04:04:29;;;;;;;9.07;5.10;;;;;;;;;;5000796;28;20087;-85
2023/08/05 04:06:55;;;;;;;10.35;4.95;;;;;;;;;;5001228;28;20398;-85
2023/08/05 04:09:22;;;;;;;6.80;4.57;;;;;;;;;;5001251;28;20041;-85
2023/08/05 04:11:49;;;;;;;9.70;5.30;;;;;;;;;;5017311;28;20496;-85
2023/08/05 04:14:20;;;;;;;8.73;5.07;;;;;;;;;;5017352;28;20096;-85
2023/08/05 04:16:47;;;;;;;10.02;5.03;;;;;;;;;;5001411;28;20052;-85
2023/08/05 04:19:15;;;;;;;12.40;5.05;;;;;;;;;;5017094;28;20441;-85
2023/08/05 04:21:46;;;;;;;9.70;5.07;;;;;;;;;;5017015;28;20056;-85
2023/08/05 04:24:13;;;;;;;9.82;5.55;;;;;;;;;;4984895;28;20038;-85
2023/08/05 04:26:40;;;;;;;9.77;4.80;;;;;;;;;;5000576;28;20076;-85
2023/08/05 04:29:06;;;;;;;6.40;4.68;;;;;;;;;;4984664;28;20088;-85
2023/08/05 04:31:32;;;;;;;6.15;4.07;;;;;;;;;;5016779;28;20049;-85
2023/08/05 04:33:59;;;;;;;9.10;4.57;;;;;;;;;;5016642;28;20108;-85
2023/08/05 04:36:25;;;;;;;5.82;3.97;;;;;;;;;;5017529;28;20406;-85
2023/08/05 04:38:51;;;;;;;15.00;4.97;;;;;;;;;;5000594;28;20502;-86
2023/08/05 04:41:17;;;;;;;8.43;4.43;;;;;;;;;;5000231;28;20049;-85
2023/08/05 04:43:43;;;;;;;9.40;5.30;;;;;;;;;;5016554;28;20049;-86
2023/08/05 04:46:11;;;;;;;7.78;4.80;;;;;;;;;;5016562;28;20069;-85
2023/08/05 04:48:37;;;;;;;11.98;4.97;;;;;;;;;;5016741;28;20054;-85
2023/08/05 04:51:03;;;;;;;8.93;4.93;;;;;;;;;;5000017;28;20041;-86
2023/08/05 04:53:30;;;;;;;6.25;5.15;;;;;;;;;;5000537;28;20049;-86
2023/08/05 04:55:56;;;;;;;8.35;4.00;;;;;;;;;;5016692;28;20132;-86
2023/08/05 04:58:22;;;;;;;11.18;5.15;;;;;;;;;;5000176;28;20080;-86
2023/08/05 05:00:48;;;;;;;8.82;4.25;;;;;;;;;;5016350;28;20041;-86
2023/08/05 05:03:14;;;;;;;9.52;4.65;;;;;;;;;;4983755;28;20053;-86
2023/08/05 05:05:42;;;;;;;10.43;5.40;;;14.10;24.20;;;;;;5016110;28;20046;-86
2023/08/05 05:08:08;;;;;;;9.15;5.25;;;;;;;;;;5016537;28;20041;-87
2023/08/05 05:10:34;;;;;;;6.95;4.20;;;;;;;;;;5016251;28;20037;-86
2023/08/05 05:13:00;;;;;;;11.40;5.07;;;;;;;;;;5016673;28;20037;-85
2023/08/05 05:15:26;;;;;;;8.48;5.22;;;;;;;;;;4999934;28;20056;-86
2023/08/05 05:17:52;;;;;;;6.72;4.85;;;;;;;;;;5015876;28;20077;-86
2023/08/05 05:20:18;;;;;;;7.60;5.53;;;14.10;37.70;;;;;;5015885;28;20072;-85
2023/08/05 05:22:44;;;;;;;16.10;5.13;;;;;;;;;;4992686;28;20045;-86
2023/08/05 05:25:10;;;;;;;11.80;5.70;;;;;;;;;;5000975;28;20045;-85
2023/08/05 05:27:36;;;;;;;10.40;5.13;;;;;;;;;;4984477;28;20050;-86
2023/08/05 05:30:03;;;;;;;8.90;4.65;;;;;;;;;;4984120;28;20489;-87
2023/08/05 05:32:29;;;;;;;8.35;4.55;;;;;;;;;;4999061;28;20119;-86
2023/08/05 05:34:56;;;;;;;7.05;4.43;;;;;;;;;;4999910;28;20057;-86
2023/08/05 05:37:22;;;;;;;11.43;4.22;;;;;;;;;;4998584;28;20411;-85
2023/08/05 05:39:48;;;;;;;6.32;3.97;;;;;;;;;;5005065;28;20042;-86
2023/08/05 05:42:15;;;;;;;6.47;4.60;;;;;;;;;;4974384;28;20046;-87
2023/08/05 05:44:40;;;;;;;6.43;4.15;;;14.70;31.30;;;;;;4998160;28;20056;-86
2023/08/05 05:47:07;;;;;;;8.55;4.35;;;;;;;;;;4966853;28;20411;-88
2023/08/05 05:49:34;;;;;;;5.95;4.80;;;;;;;;;;4989339;28;20045;-84
2023/08/05 05:52:01;;;;;;;10.98;5.35;;;;;;;;;;4983659;28;20045;-84
2023/08/05 05:55:02;;;;;;;10.23;5.63;;;;;;;;;;4999180;28;20053;-85
2023/08/05 05:57:29;;;;;;;8.70;4.93;;;;;;;;;;4998832;28;20046;-86
2023/08/05 05:59:58;;;;;;;6.53;4.90;;;;;;;;;;4989789;28;20050;-83
2023/08/05 06:02:24;;;;;;;8.07;5.10;;;;;;;;;;4995673;28;20053;-84
2023/08/05 06:04:50;;;;;;;8.23;4.57;;;;;;;;;;4979560;28;20491;-85
2023/08/05 06:07:16;;;;;;;15.05;5.18;;;;;;;;;;4995762;28;20053;-85
2023/08/05 06:09:42;;;;;;;9.30;5.10;;;;;;;;;;4995645;28;20127;-85
2023/08/05 06:12:10;;;;;;;7.97;5.18;;;;;;;;;;4979459;28;20038;-85
2023/08/05 06:14:36;;;;;;;9.02;4.72;;;;;;;;;;4996578;28;20077;-87
2023/08/05 06:17:03;;;;;;;9.75;4.88;;;;;;;;;;4996393;28;20537;-85
2023/08/05 06:19:29;;;;;;;11.48;4.47;;;;;;;;;;4979810;28;20086;-84
2023/08/05 06:21:55;;;;;;;8.50;4.57;;;;;;;;;;4996494;28;20042;-85
2023/08/05 06:24:21;;;;;;;10.10;4.10;;;;;;;;;;4996179;28;20058;-85
2023/08/05 06:26:47;;;;;;;6.13;3.85;;;;;;;;;;4996095;28;20038;-85
2023/08/05 06:29:13;;;;;;;6.15;4.20;;;;;;;;;;4996639;28;20053;-85
2023/08/05 06:31:39;;;;;;;4.95;3.72;;;;;;;;;;4995214;28;20054;-85
2023/08/05 06:34:05;;;;;;;6.35;2.67;;;;;;;;;;4994633;28;20478;-85
2023/08/05 06:36:31;;;;;;;6.97;3.58;;;;;;;;;;4978822;28;20053;-85
2023/08/05 06:38:57;;;;;;;4.60;3.00;;;;;;;;;;4993123;28;20077;-85
2023/08/05 06:41:23;;;;;;;5.65;2.70;;;;;;;;;;5014569;28;20520;-85
2023/08/05 06:43:50;;;;;;;3.92;2.35;;;;;;;;;;5014483;28;20072;-86
2023/08/05 06:46:16;;;;;;;4.35;2.30;;;;;;;;;;5014347;28;20430;-85
2023/08/05 06:48:42;;;;;;;4.45;2.22;;;;;;;;;;5014479;28;20441;-85
2023/08/05 06:51:08;;;;;;;4.40;3.03;;;;;;;;;;4998727;28;20044;-85
2023/08/05 06:53:39;;;;;;;3.03;2.20;;;;;;;;;;5002301;28;20045;-85
2023/08/05 06:56:05;;;;;;;10.18;2.80;;;;;;;;;;5015994;28;20445;-85
2023/08/05 06:58:32;;;;;;;6.20;2.50;;;;;;;;;;4999379;28;20049;-86
2023/08/05 07:00:58;;;;;;;3.53;2.50;;;;;;;;;;5015662;28;20042;-85
2023/08/05 07:03:24;;;;;;;7.13;2.42;;;;;;;;;;4998049;28;20076;-85
2023/08/05 07:05:54;;;;;;;5.97;2.83;;;16.40;1.00;;;;;;4997924;28;20060;-85
2023/08/05 07:08:22;;;;;;;3.08;2.17;;;;;;;;;;5014099;28;20041;-86
2023/08/05 07:10:58;;;;;;;5.32;2.05;;;;;;;;;;4997749;28;20108;-86
2023/08/05 07:13:27;;;;;;;2.90;2.17;;;;;;;;;;4997888;28;20053;-85
2023/08/05 07:16:00;;;;;;;5.07;2.80;;;;;;;;;;4997869;28;20052;-85
2023/08/05 07:18:26;;;;;;;3.72;2.17;;;;;;;;;;5014033;28;20080;-85
2023/08/05 07:20:53;;;;;;;6.22;2.47;;;;;;;;;;4997973;28;20046;-86
2023/08/05 07:23:19;;;;;;;2.53;2.28;;;;;;;;;;4997818;28;20050;-86
2023/08/05 07:25:45;;;;;;;3.55;2.22;;;;;;;;;;4981614;28;20513;-85
2023/08/05 07:28:11;;;;;;;2.55;2.25;;;;;;;;;;5014510;28;20049;-86
2023/08/05 07:30:37;;;;;;;6.25;2.30;;;;;;;;;;4984706;28;20073;-85
2023/08/05 07:33:06;;;;;;;2.30;2.00;;;;;;;;;;4998136;28;20565;-87
2023/08/05 07:35:33;;;;;;;3.00;2.10;;;;;;;;;;5000294;28;20095;-85
2023/08/05 07:38:03;;;;;;;5.07;2.20;;;;;;;;;;4997179;28;20068;-86
2023/08/05 07:40:31;;;;;;;4.30;2.15;;;16.90;1.00;;;;;;4997383;28;20410;-86
2023/08/05 07:43:03;;;;;;;4.82;2.10;;;;;;;;;;4981234;28;20486;-86
2023/08/05 07:45:29;;;;;;;5.28;2.70;;;;;;;;;;5013903;28;20049;-85
2023/08/05 07:47:56;;;;;;;5.18;2.55;;;;;;;;;;4997615;28;20136;-86
2023/08/05 07:50:24;;;;;;;4.60;2.00;;;;;;;;;;4997772;28;20052;-85
2023/08/05 07:52:50;;;;;;;6.15;3.03;;;16.90;1.00;;;;;;4997634;28;20112;-85
2023/08/05 07:55:16;;;;;;;4.57;2.40;;;;;;;;;;5032930;28;20405;-85
2023/08/05 07:57:42;;;;;;;3.60;2.83;;;;;;;;;;5017198;28;20048;-86
2023/08/05 08:00:11;;;;;;;8.00;2.80;;;;;;;;;;5036549;28;20047;-85
2023/08/05 08:02:38;;;;;;;3.88;2.80;;;;;;;;;;5037023;28;20131;-85
2023/08/05 08:05:05;;;;;;;6.03;2.53;;;;;;;;;;5004384;28;20187;-85
2023/08/05 08:07:31;;;;;;;3.63;2.50;;;;;;;;;;5037135;28;20048;-85
2023/08/05 08:09:57;;;;;;;2.17;1.98;;;;;;;;;;5020453;28;20045;-86
2023/08/05 08:12:24;;;;;;;3.78;2.00;;;;;;;;;;5036939;28;20136;-85
2023/08/05 08:14:50;;;;;;;6.32;2.35;;;;;;;;;;5036700;28;20166;-86
2023/08/05 08:17:16;;;;;;;3.58;2.53;;;;;;;;;;5036696;28;20037;-85
2023/08/05 08:19:45;;;;;;;4.32;2.35;;;17.60;1.00;;;;;;5020362;28;20123;-85
2023/08/05 08:22:11;;;;;;;3.05;2.22;;;;;;;;;;5036797;28;20444;-84
2023/08/05 08:24:37;;;;;;;3.20;2.35;;;;;;;;;;5039860;28;20128;-86
2023/08/05 08:27:03;;;;;;;4.40;2.58;;;;;;;;;;5037354;28;20104;-85
2023/08/05 08:29:39;;;;;;;2.90;2.60;;;;;;;;;;5020350;28;20041;-85
2023/08/05 08:32:05;;;;;;;5.53;2.60;;;;;;;;;;5036772;28;20419;-88
2023/08/05 08:34:31;;;;;;;3.22;2.42;;;;;;;;;;5020739;28;20436;-88
2023/08/05 08:36:57;;;;;;;2.53;2.00;;;;;;;;;;5021015;28;20536;-89
2023/08/05 08:39:23;;;;;;;6.07;3.17;;;;;;;;;;5020766;28;20118;-92
2023/08/05 08:41:50;;;;;;;5.70;2.42;;;;;;;;;;5037187;28;20053;-92
2023/08/05 08:44:16;;;;;;;3.58;2.53;;;18.00;1.00;;;;;;5036658;28;20462;-87
2023/08/05 08:46:44;;;;;;;6.50;2.60;;;;;;;;;;5019591;28;20091;-87
2023/08/05 08:49:11;;;;;;;3.40;2.88;;;;;;;;;;5036347;28;20052;-87
2023/08/05 08:51:37;;;;;;;2.88;2.40;;;;;;;;;;5036442;28;20121;-86
2023/08/05 08:54:03;;;;;;;3.83;2.25;;;;;;;;;;5019480;28;20414;-88
2023/08/05 08:56:32;;;;;;;5.13;2.33;;;;;;;;;;5015082;28;20041;-96
2023/08/05 08:59:01;;;;;;;2.55;2.20;;;;;;;;;;5001492;28;20038;-93
2023/08/05 09:01:30;;;;;;;3.72;2.40;;;;;;;;;;4985942;28;20057;-93
2023/08/05 09:03:58;;;;;;;4.68;1.83;;;18.40;1.00;;;;;;4985693;28;20563;-92
2023/08/05 09:06:26;;;;;;;3.58;2.08;;;;;;;;;;5019446;28;20053;-90
2023/08/05 09:08:55;;;;;;;2.10;1.90;;;;;;;;;;4985735;28;20041;-91
2023/08/05 09:11:21;;;;;;;3.47;1.63;;;;;;;;;;5015396;28;20053;-90
2023/08/05 09:13:47;;;;;;;2.00;1.80;;;;;;;;;;4984012;28;20049;-90
2023/08/05 09:16:14;;;;;;;2.75;1.85;;;;;;;;;;4983986;28;20418;-91
2023/08/05 09:18:44;;;;;;;2.33;2.13;;;18.70;1.00;;;;;;5000202;28;20049;-92
2023/08/05 09:21:11;;;;;;;2.30;2.10;;;;;;;;;;4984619;28;20200;-92
2023/08/05 09:23:56;;;;;;;1.88;1.77;;;;;;;;;;4984456;28;20519;-90
2023/08/05 09:26:31;;;;;;;3.60;1.90;;;18.80;1.00;;;;;;5000027;28;20049;-92
2023/08/05 09:28:58;;;;;;;2.72;2.20;;;19.00;1.00;;;;;;4983903;28;20137;-92
2023/08/05 09:31:25;;;;;;;2.25;1.90;;;;;;;;;;5000122;28;20092;-92
2023/08/05 09:33:51;;;;;;;4.70;1.80;;;;;;;;;;4999976;28;20041;-92
2023/08/05 09:36:22;;;;;;;3.05;2.03;;;;;;;;;;4984052;28;20128;-91
2023/08/05 09:39:00;;;;;;;3.97;2.42;;;19.20;1.00;;;;;;4983920;28;20053;-92
2023/08/05 09:41:28;;;;;;;2.92;2.00;;;19.00;1.00;;;;;;5000028;28;20060;-91
2023/08/05 09:43:54;;;;;;;3.83;1.95;;;;;;;;;;4984016;28;20049;-92
2023/08/05 09:46:25;;;;;;;2.13;1.65;;;19.50;1.00;;;;;;4984018;28;20494;-92
2023/08/05 09:48:54;;;;;;;2.33;2.08;;;;;;;;;;4999998;28;20056;-92
2023/08/05 09:51:21;;;;;;;3.38;2.00;;;;;;;;;;4984402;28;20045;-92
2023/08/05 09:53:54;;;;;;;2.08;1.80;;;19.70;1.00;;;;;;4984346;28;20041;-91
2023/08/05 09:56:20;;;;;;;2.65;1.60;;;;;;;;;;4999907;28;20045;-93
2023/08/05 09:58:48;;;;;;;2.88;1.40;;;19.90;1.00;;;;;;4999981;28;20041;-93
2023/08/05 10:01:14;;;;;;;3.58;2.03;;;;;;;;;;4999612;28;20128;-91
2023/08/05 10:03:41;;;;;;;3.03;1.92;;;;;;;;;;4982958;28;20452;-91
2023/08/05 10:06:07;;;;;;;3.15;1.65;;;;;;;;;;4999428;28;20053;-91
2023/08/05 10:08:36;;;;;;;3.78;2.00;;;;;;;;;;5015772;28;20136;-90
2023/08/05 10:11:14;;;;;;;1.50;1.40;;;20.20;1.00;;;;;;4984373;28;20088;-90
2023/08/05 10:13:52;;;;;;;2.03;1.50;;;20.60;1.00;;;;;;5004613;28;20398;-91
2023/08/05 10:16:20;;;;;;;2.53;1.70;;;20.30;1.00;;;;;;4999608;28;20136;-88
2023/08/05 10:18:48;;;;;;;2.40;1.50;;;;;;;;;;5016196;28;20104;-89
2023/08/05 10:21:37;;;;;;;2.30;1.50;;;20.60;1.00;;;;;;5021964;23;20053;-86
2023/08/05 10:24:03;;;;;;;3.75;1.75;;;;;;;;;;5020611;28;20502;-86
2023/08/05 10:26:45;;;;;;;1.75;1.65;;;20.60;1.00;;;;;;5008023;28;20042;-87
2023/08/05 10:29:30;;;;;;;4.93;1.63;;;20.90;1.00;;;;;;5010385;28;20091;-87
2023/08/05 10:32:14;;;;;;;7.78;2.38;;;20.50;1.00;;;;;;5010982;28;20056;-91
2023/08/05 10:34:40;;;;;;;21.40;3.33;;;;;;;;;;5023489;28;20076;-85
2023/08/05 10:37:12;;;;;;;24.17;3.72;;;20.90;1.00;;;;;;5006681;28;20048;-92
2023/08/05 10:39:41;;;;;;;39.97;5.85;;;20.80;1.00;;;;;;5041020;28;20052;-89
2023/08/05 10:42:30;;;;;;;12.93;2.50;;;21.10;1.00;;;;;;5007761;28;20041;-86
2023/08/05 10:44:56;;;;;;;5.03;2.08;;;;;;;;;;5005730;28;20520;-90
2023/08/05 10:47:22;;;;;;;3.05;2.28;;;20.80;1.00;;;;;;5005454;28;20041;-86
2023/08/05 10:49:56;;;;;;;2.25;1.55;;;20.90;1.00;;;;;;5005305;28;20048;-87
2023/08/05 10:52:23;;;;;;;25.67;3.58;;;;;;;;;;5022755;28;20076;-90
2023/08/05 10:54:50;;;;;;;2.15;1.80;;;21.00;1.00;;;;;;5006287;28;20050;-86
2023/08/05 10:57:34;;;;;;;10.88;2.30;;;21.00;1.00;;;;;;5022220;28;20076;-90
2023/08/05 11:00:00;;;;;;;;;;;20.90;1.00;;;;;;5022054;28;20053;-85
2023/08/05 11:02:26;;;;;;;4.85;3.03;;;;;;;;;;5021764;28;19963;-85
2023/08/05 11:05:08;;;;;;;2.83;1.90;;;21.10;1.00;;;;;;4989502;28;20041;-86
2023/08/05 11:07:38;;;;;;;4.47;2.00;;;21.40;1.00;;;;;;5022209;28;20041;-88
2023/08/05 11:10:08;;;;;;;1.77;1.58;;;21.40;1.00;;;;;;5039723;28;20043;-87
2023/08/05 11:12:34;;;;;;;2.05;1.85;;;;;;;;;;5005058;28;20049;-87
2023/08/05 11:15:01;;;;;;;3.35;1.83;;;;;;;;;;5021055;28;20445;-85
2023/08/05 11:17:27;;;;;;;5.15;1.88;;;;;;;;;;5006130;28;20041;-90
2023/08/05 11:19:54;;;;;;;2.95;1.70;;;21.00;1.00;;;;;;5005856;28;20124;-87
2023/08/05 11:22:26;;;;;;;3.65;1.95;;;21.10;1.00;;;;;;5005276;28;20060;-89
2023/08/05 11:24:57;;;;;;;2.45;2.03;;;20.80;1.00;;;;;;5022389;28;20041;-88
2023/08/05 11:27:39;;;;;;;3.30;1.85;;;21.10;1.00;;;;;;5006524;28;20055;-85
2023/08/05 11:30:18;;;;;;;1.90;1.80;;;20.90;1.00;;;;;;5005049;28;20045;-88
2023/08/05 11:32:55;;;;;;;2.15;1.77;;;21.10;1.00;;;;;;5004438;28;20047;-83
2023/08/05 11:35:22;;;;;;;7.15;2.58;;;;;;;;;;5024970;28;20053;-84
2023/08/05 11:37:48;;;;;;;4.47;2.22;;;;;;;;;;5024273;28;20050;-84
2023/08/05 11:40:14;;;;;;;4.25;2.50;;;;;;;;;;5024572;28;20124;-82
2023/08/05 11:42:40;;;;;;;2.08;1.88;;;;;;;;;;5007615;28;20052;-85
2023/08/05 11:45:13;;;;;;;2.42;1.85;;;21.10;1.00;;;;;;5023714;28;20065;-84
2023/08/05 11:47:40;;;;;;;5.00;2.25;;;21.10;1.00;;;;;;4991677;28;20072;-88
2023/08/05 11:50:12;;;;;;;5.15;1.80;;;21.20;1.00;;;;;;5024853;28;20049;-83
2023/08/05 11:52:39;;;;;;;6.13;2.30;;;21.20;1.00;;;;;;5023627;28;20041;-82
2023/08/05 11:55:07;;;;;;;5.75;2.13;;;21.50;1.00;;;;;;5006764;28;20092;-86
2023/08/05 11:57:33;;;;;;;5.28;2.05;;;;;;;;;;4992934;28;20061;-85
2023/08/05 12:00:08;;;;;;;2.42;1.92;;;21.40;1.00;;;;;;4991895;28;20509;-85
2023/08/05 12:02:35;;;;;;;3.42;2.42;;;21.10;1.00;;;;;;5009659;28;20561;-86
2023/08/05 12:05:01;;;;;;;4.70;2.03;;;;;;;;;;4977574;28;20060;-89
2023/08/05 12:07:28;;;;;;;3.65;1.77;;;;;;;;;;5027234;28;20037;-84
2023/08/05 12:10:11;;;;;;;5.43;2.10;;;21.30;1.00;;;;;;5026632;28;20101;-86
2023/08/05 12:12:41;;;;;;;5.28;2.38;;;21.30;1.00;;;;;;5010259;28;20490;-85
2023/08/05 12:15:27;;;;;;;2.50;2.10;;;21.10;1.00;;;;;;5009168;28;20402;-86
2023/08/05 12:18:05;;;;;;;3.08;2.25;;;21.00;1.00;;;;;;5008846;28;20064;-85
2023/08/05 12:20:36;;;;;;;2.28;1.90;;;21.30;1.00;;;;;;5024186;28;20041;-88
2023/08/05 12:23:03;;;;;;;27.88;5.50;;;21.20;1.00;;;;;;5008110;28;20127;-83
2023/08/05 12:25:31;;;;;;;7.70;2.33;;;21.00;1.00;;;;;;5024591;28;20141;-82
2023/08/05 12:27:57;;;;;;;7.95;2.42;;;20.90;1.00;;;;;;5024485;28;20046;-86
2023/08/05 12:30:23;;;;;;;4.13;3.20;;;20.90;1.00;;;;;;4990214;28;20402;-84
2023/08/05 12:32:50;;;;;;;4.65;2.30;;;;;;;;;;5018053;28;20132;-86
2023/08/05 12:35:16;;;;;;;13.40;3.72;;;;;;;;;;5001011;28;20543;-82
2023/08/05 12:37:42;;;;;;;6.72;3.53;;;;;;;;;;5001046;28;20048;-85
2023/08/05 12:40:12;;;;;;;8.25;3.58;;;20.40;1.00;;;;;;5017267;28;20398;-84
2023/08/05 12:42:39;;;;;;;6.22;3.15;;;;;;;;;;4985348;28;20099;-86
2023/08/05 12:45:07;;;;;;;30.35;5.30;;;20.20;1.00;;;;;;5001065;28;20124;-85
2023/08/05 12:47:33;;;;;;;8.45;3.80;;;;;;;;;;5000829;28;20053;-83
2023/08/05 12:49:59;;;;;;;5.30;3.63;;;;;;;;;;5000681;28;20045;-81
2023/08/05 12:52:26;;;;;;;4.15;3.65;;;;;;;;;;5017494;28;20056;-86
2023/08/05 12:54:52;;;;;;;5.20;3.33;;;;;;;;;;5017430;28;20091;-90
2023/08/05 12:57:18;;;;;;;5.97;3.30;;;;;;;;;;5034854;28;20077;-89
2023/08/05 12:59:45;;;;;;;9.90;4.95;;;;;;;;;;5017357;28;20131;-90
2023/08/05 13:02:16;;;;;;;3.45;3.15;;;;;;;;;;5001154;28;20056;-86
2023/08/05 13:04:42;;;;;;;7.35;3.30;;;;;;;;;;5000472;28;20045;-86
2023/08/05 13:07:08;;;;;;;4.38;3.30;;;;;;;;;;4984554;28;20049;-83
2023/08/05 13:09:37;;;;;;;3.42;3.13;;;;;;;;;;4985475;28;20045;-89
2023/08/05 13:12:03;;;;;;;4.68;4.13;;;;;;;;;;4987018;28;20529;-85
2023/08/05 13:14:29;;;;;;;8.32;3.92;;;;;;;;;;5034789;28;20045;-90
2023/08/05 13:16:58;;;;;;;5.00;3.67;;;;;;;;;;4985146;28;20049;-88
2023/08/05 13:19:26;;;;;;;4.15;3.75;;;;;;;;;;5000955;28;20107;-87
2023/08/05 13:21:53;;;;;;;5.70;3.90;;;;;;;;;;4999930;28;20180;-86
2023/08/05 13:24:19;;;;;;;6.85;4.43;;;;;;;;;;5034217;28;20045;-90
2023/08/05 13:26:45;;;;;;;5.82;4.65;;;;;;;;;;5000498;28;20049;-88
2023/08/05 13:29:11;;;;;;;5.93;4.70;;;;;;;;;;4983587;28;20438;-84
2023/08/05 13:31:37;;;;;;;5.85;4.20;;;;;;;;;;5000159;28;20060;-86
2023/08/05 13:34:03;;;;;;;6.30;4.20;;;;;;;;;;5016540;28;20064;-86
2023/08/05 13:36:29;;;;;;;6.93;5.25;;;;;;;;;;5016757;28;20128;-86
2023/08/05 13:38:55;;;;;;;8.15;5.43;;;;;;;;;;4999721;28;20049;-85
2023/08/05 13:41:22;;;;;;;10.32;5.95;;;;;;;;;;5016522;28;20053;-91
2023/08/05 13:43:48;;;;;;;7.80;5.88;;;;;;;;;;4984388;28;20433;-86
2023/08/05 13:46:14;;;;;;;9.57;6.93;;;;;;;;;;5016951;28;20056;-85
2023/08/05 13:48:40;;;;;;;9.18;7.00;;;;;;;;;;4999907;28;20053;-86
2023/08/05 13:51:07;;;;;;;11.70;7.28;;;19.70;1.00;;;;;;5015707;28;20041;-86
2023/08/05 13:53:34;;;;;;;10.50;7.68;;;;;;;;;;4999459;28;20045;-86
2023/08/05 13:56:01;;;;;;;11.15;7.53;;;19.60;1.00;;;;;;5015474;28;20042;-86
2023/08/05 13:58:27;;;;;;;16.17;8.90;;;;;;;;;;4999558;28;20087;-87
2023/08/05 14:00:54;;;;;;;8.65;7.47;;;19.60;1.00;;;;;;4999979;28;20473;-85
2023/08/05 14:03:20;;;;;;;9.13;8.10;;;;;;;;;;4998945;28;20133;-86
2023/08/05 14:05:46;;;;;;;11.98;8.95;;;;;;;;;;4999105;28;20088;-86
2023/08/05 14:08:12;;;;;;;11.23;8.65;;;;;;;;;;4999589;28;20053;-85
2023/08/05 14:10:39;;;;;;;9.43;7.80;;;;;;;;;;4999629;28;20084;-87
2023/08/05 14:13:05;;;;;;;10.93;8.82;;;;;;;;;;4999400;28;20053;-86
2023/08/05 14:15:33;;;;;;;9.95;8.18;;;19.50;1.00;;;;;;5015223;28;20049;-84
2023/08/05 14:17:59;;;;;;;13.18;9.18;;;;;;;;;;5015470;28;20045;-86
2023/08/05 14:20:25;;;;;;;10.27;8.10;;;;;;;;;;4999019;28;20048;-83